createdAt,value
2022-07-28T00:00:15.739Z,159758.59
2022-07-28T00:03:03.415Z,159739.88
2022-07-28T00:05:31.018Z,159723.84
2022-07-28T00:07:58.310Z,159694.47
2022-07-28T00:10:25.523Z,159681.06
2022-07-28T00:12:54.065Z,159632.97
2022-07-28T00:15:21.562Z,159626.28
2022-07-28T00:17:48.890Z,159616.94
2022-07-28T00:20:16.185Z,159602.25
2022-07-28T00:22:44.689Z,159579.56
2022-07-28T00:25:12.183Z,159560.84
2022-07-28T00:27:39.613Z,159546.19
2022-07-28T00:30:07.624Z,159536.84
2022-07-28T00:32:35.445Z,159531.50
2022-07-28T00:35:03.398Z,159504.78
2022-07-28T00:37:30.813Z,159510.13
2022-07-28T00:39:58.337Z,159496.78
2022-07-28T00:42:25.772Z,159492.75
2022-07-28T00:44:53.095Z,159482.09
2022-07-28T00:47:20.781Z,159475.41
2022-07-28T00:49:50.376Z,159476.72
2022-07-28T00:52:19.118Z,159470.06
2022-07-28T00:54:46.326Z,159462.06
2022-07-28T00:57:14.004Z,159443.34
2022-07-28T00:59:41.474Z,159422.00
2022-07-28T01:02:08.738Z,159411.34
2022-07-28T01:04:36.386Z,159385.97
2022-07-28T01:07:32.912Z,159360.63
2022-07-28T01:10:28.890Z,159349.94
2022-07-28T01:12:59.549Z,159345.94
2022-07-28T01:15:45.593Z,159328.56
2022-07-28T01:18:19.143Z,159309.88
2022-07-28T01:20:50.744Z,159295.19
2022-07-28T01:23:48.404Z,159305.91
2022-07-28T01:26:34.109Z,159283.22
2022-07-28T01:29:38.745Z,159276.56
2022-07-28T01:32:14.651Z,159256.47
2022-07-28T01:35:00.246Z,159249.81
2022-07-28T01:37:32.323Z,159253.78
2022-07-28T01:40:03.330Z,159233.81
2022-07-28T01:42:35.225Z,159228.47
2022-07-28T01:45:04.225Z,159196.41
2022-07-28T01:47:34.060Z,159212.47
2022-07-28T01:50:04.039Z,159208.44
2022-07-28T01:52:32.385Z,159197.78
2022-07-28T01:55:01.824Z,159177.78
2022-07-28T01:57:33.463Z,159161.72
2022-07-28T02:00:01.323Z,159153.72
2022-07-28T02:02:29.968Z,159148.38
2022-07-28T02:04:59.516Z,159147.06
2022-07-28T02:07:27.829Z,159137.72
2022-07-28T02:09:57.411Z,159136.41
2022-07-28T02:12:26.292Z,159116.41
2022-07-28T02:14:54.221Z,159097.69
2022-07-28T02:17:25.586Z,159088.38
2022-07-28T02:19:53.140Z,159085.75
2022-07-28T02:22:21.449Z,159080.38
2022-07-28T02:24:48.920Z,159076.38
2022-07-28T02:27:22.307Z,159077.69
2022-07-28T02:29:54.003Z,159065.72
2022-07-28T02:32:33.585Z,159068.38
2022-07-28T02:35:09.338Z,159060.38
2022-07-28T02:37:40.259Z,159060.38
2022-07-28T02:40:13.726Z,159055.03
2022-07-28T02:42:41.901Z,159049.69
2022-07-28T02:45:11.938Z,159052.38
2022-07-28T02:47:49.166Z,159041.69
2022-07-28T02:50:19.826Z,159021.69
2022-07-28T02:52:47.658Z,159021.69
2022-07-28T02:55:16.205Z,159025.69
2022-07-28T02:57:45.298Z,159051.06
2022-07-28T03:00:13.130Z,159043.06
2022-07-28T03:02:41.340Z,159032.38
2022-07-28T03:05:11.227Z,159021.69
2022-07-28T03:07:46.481Z,159007.00
2022-07-28T03:10:33.478Z,158996.38
2022-07-28T03:13:03.470Z,158995.06
2022-07-28T03:15:31.454Z,159007.00
2022-07-28T03:18:02.168Z,159008.38
2022-07-28T03:20:30.386Z,159017.72
2022-07-28T03:22:58.453Z,159024.38
2022-07-28T03:25:43.530Z,159036.41
2022-07-28T03:28:15.197Z,159033.69
2022-07-28T03:30:45.567Z,159037.72
2022-07-28T03:33:13.466Z,159053.69
2022-07-28T03:35:45.015Z,159060.38
2022-07-28T03:38:17.807Z,159064.41
2022-07-28T03:40:47.191Z,159076.38
2022-07-28T03:43:16.461Z,159088.38
2022-07-28T03:45:46.722Z,159076.38
2022-07-28T03:48:15.189Z,159115.06
2022-07-28T03:50:42.543Z,159124.38
2022-07-28T03:53:14.739Z,159148.38
2022-07-28T03:55:42.259Z,159181.75
2022-07-28T03:58:09.379Z,159211.09
2022-07-28T04:00:36.605Z,159241.81
2022-07-28T04:03:04.124Z,159277.88
2022-07-28T04:05:51.330Z,159309.88
2022-07-28T04:08:18.704Z,159353.94
2022-07-28T04:10:45.850Z,159395.34
2022-07-28T04:13:13.162Z,159416.69
2022-07-28T04:15:40.724Z,159450.03
2022-07-28T04:18:07.988Z,159483.41
2022-07-28T04:20:35.172Z,159515.47
2022-07-28T04:23:02.521Z,159547.50
2022-07-28T04:25:29.864Z,159578.19
2022-07-28T04:27:57.125Z,159615.63
2022-07-28T04:30:25.199Z,159658.34
2022-07-28T04:32:54.061Z,159689.13
2022-07-28T04:35:24.137Z,159715.84
2022-07-28T04:37:55.151Z,159743.91
2022-07-28T04:40:22.598Z,159761.25
2022-07-28T04:42:50.406Z,159816.03
2022-07-28T04:45:17.855Z,159858.78
2022-07-28T04:47:45.172Z,159909.56
2022-07-28T04:50:15.945Z,159953.72
2022-07-28T04:52:43.429Z,159997.81
2022-07-28T04:55:10.575Z,160047.28
2022-07-28T04:57:38.435Z,160075.41
2022-07-28T05:00:12.404Z,160114.16
2022-07-28T05:02:45.156Z,160159.66
2022-07-28T05:05:13.120Z,160213.13
2022-07-28T05:07:41.044Z,160276.00
2022-07-28T05:10:10.075Z,160329.53
2022-07-28T05:12:37.956Z,160397.84
2022-07-28T05:15:06.909Z,160467.41
2022-07-28T05:17:34.474Z,160535.69
2022-07-28T05:20:03.413Z,160583.88
2022-07-28T05:22:47.627Z,160701.78
2022-07-28T05:25:17.287Z,160811.59
2022-07-28T05:27:46.041Z,160930.81
2022-07-28T05:30:14.819Z,161064.88
2022-07-28T05:32:42.328Z,161111.81
2022-07-28T05:35:10.079Z,161173.44
2022-07-28T05:37:38.052Z,161237.84
2022-07-28T05:40:18.251Z,161284.81
2022-07-28T05:42:47.860Z,161314.31
2022-07-28T05:45:17.243Z,161453.81
2022-07-28T05:47:52.182Z,161593.41
2022-07-28T05:50:22.250Z,161555.81
2022-07-28T05:52:51.157Z,161633.66
2022-07-28T05:55:19.130Z,161727.69
2022-07-28T05:57:47.034Z,161763.94
2022-07-28T06:00:16.633Z,161777.34
2022-07-28T06:02:49.652Z,161880.72
2022-07-28T06:05:22.289Z,161931.72
2022-07-28T06:07:51.135Z,162058.06
2022-07-28T06:10:21.332Z,162000.31
2022-07-28T06:12:50.921Z,161961.38
2022-07-28T06:15:22.631Z,162035.22
2022-07-28T06:17:55.343Z,162054.06
2022-07-28T06:20:25.235Z,162067.50
2022-07-28T06:22:55.264Z,162141.34
2022-07-28T06:25:29.589Z,162204.56
2022-07-28T06:27:59.044Z,162179.03
2022-07-28T06:30:26.838Z,162160.19
2022-07-28T06:32:54.420Z,162261.00
2022-07-28T06:35:21.995Z,162267.75
2022-07-28T06:37:50.906Z,162275.78
2022-07-28T06:40:19.785Z,162342.97
2022-07-28T06:42:47.583Z,162414.28
2022-07-28T06:45:20.715Z,162450.56
2022-07-28T06:47:53.321Z,162485.53
2022-07-28T06:50:24.952Z,162460.00
2022-07-28T06:52:55.913Z,162396.81
2022-07-28T06:55:23.276Z,162381.97
2022-07-28T06:57:50.471Z,162433.13
2022-07-28T07:00:18.110Z,162376.59
2022-07-28T07:02:45.523Z,162400.81
2022-07-28T07:05:13.163Z,162332.25
2022-07-28T07:07:43.387Z,162419.66
2022-07-28T07:10:11.804Z,162455.97
2022-07-28T07:12:39.451Z,162504.38
2022-07-28T07:15:07.805Z,162572.97
2022-07-28T07:17:37.419Z,162462.69
2022-07-28T07:20:08.812Z,162351.03
2022-07-28T07:22:42.519Z,162383.31
2022-07-28T07:25:14.053Z,162426.38
2022-07-28T07:27:41.498Z,162462.69
2022-07-28T07:30:09.315Z,162446.56
2022-07-28T07:32:36.779Z,162357.75
2022-07-28T07:35:05.111Z,162383.31
2022-07-28T07:37:35.184Z,162458.69
2022-07-28T07:40:04.503Z,162494.97
2022-07-28T07:42:32.117Z,162503.03
2022-07-28T07:44:59.695Z,162517.81
2022-07-28T07:47:26.931Z,162488.25
2022-07-28T07:49:54.396Z,162539.34
2022-07-28T07:52:21.724Z,162539.34
2022-07-28T07:54:48.903Z,162551.44
2022-07-28T07:57:16.473Z,162504.38
2022-07-28T07:59:43.824Z,162430.44
2022-07-28T08:02:11.060Z,162348.38
2022-07-28T08:04:40.248Z,162357.75
2022-07-28T08:07:07.726Z,162380.66
2022-07-28T08:09:35.641Z,162402.22
2022-07-28T08:12:03.492Z,162512.44
2022-07-28T08:14:30.669Z,162472.13
2022-07-28T08:16:59.311Z,162469.41
2022-07-28T08:19:27.066Z,162485.53
2022-07-28T08:21:55.655Z,162476.13
2022-07-28T08:24:31.617Z,162548.72
2022-07-28T08:27:02.636Z,162511.09
2022-07-28T08:29:30.063Z,162488.25
2022-07-28T08:31:57.409Z,162539.34
2022-07-28T08:34:31.502Z,162528.56
2022-07-28T08:37:03.925Z,162478.81
2022-07-28T08:39:33.445Z,162473.47
2022-07-28T08:42:10.798Z,162414.28
2022-07-28T08:44:51.290Z,162248.91
2022-07-28T08:47:19.877Z,162267.75
2022-07-28T08:49:48.671Z,162263.69
2022-07-28T08:52:16.998Z,162367.19
2022-07-28T08:54:46.491Z,162482.84
2022-07-28T08:57:18.180Z,162551.44
2022-07-28T08:59:45.437Z,162571.63
2022-07-28T09:02:13.211Z,162546.06
2022-07-28T09:04:40.652Z,162550.13
2022-07-28T09:07:08.444Z,162589.09
2022-07-28T09:09:35.847Z,162620.06
2022-07-28T09:12:05.538Z,162605.28
2022-07-28T09:14:33.602Z,162529.94
2022-07-28T09:17:02.023Z,162457.28
2022-07-28T09:19:34.519Z,162355.09
2022-07-28T09:22:03.901Z,162294.63
2022-07-28T09:24:38.370Z,162256.97
2022-07-28T09:27:08.026Z,162340.31
2022-07-28T09:29:37.257Z,162408.94
2022-07-28T09:32:05.829Z,162402.22
2022-07-28T09:34:44.299Z,162312.06
2022-07-28T09:37:28.615Z,162270.41
2022-07-28T09:39:59.834Z,162308.03
2022-07-28T09:42:45.851Z,162342.97
2022-07-28T09:45:22.808Z,162333.59
2022-07-28T09:48:10.008Z,162381.97
2022-07-28T09:50:39.008Z,162422.38
2022-07-28T09:53:27.564Z,162496.31
2022-07-28T09:56:01.544Z,162558.19
2022-07-28T09:58:30.534Z,162595.88
2022-07-28T10:01:21.112Z,162601.25
2022-07-28T10:03:53.760Z,162546.06
2022-07-28T10:06:32.935Z,162603.94
2022-07-28T10:09:03.028Z,162606.59
2022-07-28T10:11:31.066Z,162554.13
2022-07-28T10:14:06.220Z,162544.72
2022-07-28T10:16:36.222Z,162445.22
2022-07-28T10:19:05.654Z,162383.31
2022-07-28T10:21:35.580Z,162431.78
2022-07-28T10:24:06.097Z,162418.31
2022-07-28T10:26:38.731Z,162415.66
2022-07-28T10:29:09.559Z,162430.44
2022-07-28T10:31:58.266Z,162415.66
2022-07-28T10:34:32.080Z,162390.09
2022-07-28T10:37:03.427Z,162464.00
2022-07-28T10:39:39.910Z,162476.13
2022-07-28T10:42:11.868Z,162427.72
2022-07-28T10:44:39.816Z,162466.72
2022-07-28T10:47:18.629Z,162400.81
2022-07-28T10:49:49.062Z,162352.41
2022-07-28T10:52:46.181Z,162407.53
2022-07-28T10:55:36.385Z,162476.13
2022-07-28T10:58:41.868Z,162484.19
2022-07-28T11:01:17.154Z,162519.16
2022-07-28T11:03:54.043Z,162371.22
2022-07-28T11:06:31.742Z,162279.78
2022-07-28T11:09:26.124Z,162246.22
2022-07-28T11:11:55.548Z,162345.69
2022-07-28T11:14:38.381Z,162360.47
2022-07-28T11:17:10.612Z,162278.47
2022-07-28T11:20:16.517Z,162240.84
2022-07-28T11:22:34.042Z,162247.56
2022-07-28T11:25:18.501Z,162324.19
2022-07-28T11:27:54.543Z,162348.38
2022-07-28T11:30:40.199Z,162332.25
2022-07-28T11:33:10.583Z,162309.41
2022-07-28T11:35:41.019Z,162373.94
2022-07-28T11:38:10.354Z,162481.53
2022-07-28T11:40:44.518Z,162488.25
2022-07-28T11:43:33.341Z,162528.56
2022-07-28T11:46:10.124Z,162593.16
2022-07-28T11:48:41.270Z,162652.34
2022-07-28T11:51:10.592Z,162718.25
2022-07-28T11:53:53.343Z,162784.16
2022-07-28T11:56:25.984Z,162823.25
2022-07-28T11:59:00.610Z,162874.38
2022-07-28T12:01:31.611Z,162883.78
2022-07-28T12:04:01.061Z,162903.97
2022-07-28T12:06:36.178Z,162921.50
2022-07-28T12:09:06.467Z,162956.50
2022-07-28T12:11:38.492Z,162944.38
2022-07-28T12:14:09.227Z,162969.97
2022-07-28T12:16:39.656Z,162934.97
2022-07-28T12:19:08.394Z,162831.31
2022-07-28T12:21:46.211Z,162805.78
2022-07-28T12:24:27.994Z,162848.84
2022-07-28T12:26:55.736Z,162816.53
2022-07-28T12:29:24.165Z,162812.47
2022-07-28T12:32:02.695Z,162780.16
2022-07-28T12:34:32.543Z,162784.16
2022-07-28T12:37:04.405Z,162799.06
2022-07-28T12:39:36.753Z,162821.94
2022-07-28T12:42:08.306Z,162869.00
2022-07-28T12:44:47.468Z,162805.78
2022-07-28T12:47:17.739Z,162854.19
2022-07-28T12:49:45.552Z,162901.31
2022-07-28T12:52:23.687Z,162878.44
2022-07-28T12:54:54.717Z,162825.94
2022-07-28T12:57:48.648Z,162809.81
2022-07-28T13:00:22.369Z,162772.09
2022-07-28T13:02:51.496Z,162749.22
2022-07-28T13:05:33.098Z,162696.75
2022-07-28T13:08:05.937Z,162684.63
2022-07-28T13:10:33.654Z,162703.47
2022-07-28T13:13:04.091Z,162704.81
2022-07-28T13:15:31.837Z,162762.63
2022-07-28T13:18:00.037Z,162773.44
2022-07-28T13:20:27.638Z,162776.09
2022-07-28T13:22:55.040Z,162821.94
2022-07-28T13:25:22.723Z,162866.31
2022-07-28T13:27:54.994Z,162869.00
2022-07-28T13:30:23.630Z,162871.72
2022-07-28T13:32:51.280Z,162873.03
2022-07-28T13:35:21.185Z,162893.25
2022-07-28T13:37:48.993Z,162891.91
2022-07-28T13:40:16.374Z,162882.44
2022-07-28T13:42:53.139Z,162864.97
2022-07-28T13:45:24.709Z,162859.59
2022-07-28T13:47:53.705Z,162854.19
2022-07-28T13:50:21.276Z,162784.16
2022-07-28T13:52:48.753Z,162766.69
2022-07-28T13:55:17.773Z,162770.75
2022-07-28T13:57:50.350Z,162780.16
2022-07-28T14:00:22.806Z,162780.16
2022-07-28T14:02:50.585Z,162786.88
2022-07-28T14:05:18.115Z,162795.00
2022-07-28T14:07:48.718Z,162786.88
2022-07-28T14:10:18.244Z,162774.75
2022-07-28T14:12:46.529Z,162800.41
2022-07-28T14:15:14.257Z,162805.78
2022-07-28T14:17:44.085Z,162840.72
2022-07-28T14:20:16.604Z,162859.59
2022-07-28T14:22:46.378Z,162903.97
2022-07-28T14:25:20.866Z,162894.56
2022-07-28T14:27:53.015Z,162864.97
2022-07-28T14:30:22.289Z,162855.56
2022-07-28T14:32:50.037Z,162894.56
2022-07-28T14:35:17.548Z,162929.56
2022-07-28T14:40:33.312Z,162899.97
2022-07-28T14:43:06.719Z,162909.38
2022-07-28T14:46:01.464Z,162879.78
2022-07-28T14:48:23.250Z,162903.97
2022-07-28T14:50:52.316Z,162920.16
2022-07-28T14:53:22.264Z,162929.56
2022-07-28T14:55:49.592Z,162975.31
2022-07-28T14:58:16.950Z,162889.19
2022-07-28T15:00:44.317Z,162921.50
2022-07-28T15:03:11.581Z,162938.97
2022-07-28T15:05:39.361Z,162926.91
2022-07-28T15:08:06.777Z,162943.03
2022-07-28T15:10:34.077Z,162953.78
2022-07-28T15:13:01.563Z,162948.44
2022-07-28T15:15:29.379Z,162937.63
2022-07-28T15:17:57.475Z,162905.38
2022-07-28T15:20:25.054Z,162947.03
2022-07-28T15:22:52.297Z,162934.97
2022-07-28T15:25:20.511Z,162856.91
2022-07-28T15:27:48.000Z,162843.44
2022-07-28T15:30:15.377Z,162830.00
2022-07-28T15:32:56.253Z,162809.81
2022-07-28T15:35:25.970Z,162813.88
2022-07-28T15:37:53.479Z,162836.72
2022-07-28T15:40:20.814Z,162844.78
2022-07-28T15:42:48.269Z,162875.72
2022-07-28T15:45:15.470Z,162910.72
2022-07-28T15:47:42.726Z,162905.38
2022-07-28T15:50:10.070Z,162902.66
2022-07-28T15:52:37.588Z,162914.78
2022-07-28T15:55:05.257Z,162916.09
2022-07-28T15:57:37.521Z,162918.78
2022-07-28T16:00:06.365Z,162886.50
2022-07-28T16:02:33.928Z,162847.47
2022-07-28T16:05:01.235Z,162805.78
2022-07-28T16:07:29.541Z,162792.34
2022-07-28T16:09:57.326Z,162801.75
2022-07-28T16:12:25.693Z,162817.88
2022-07-28T16:14:54.105Z,162795.00
2022-07-28T16:17:22.398Z,162801.75
2022-07-28T16:19:51.268Z,162809.81
2022-07-28T16:22:19.557Z,162811.13
2022-07-28T16:24:47.997Z,162781.50
2022-07-28T16:27:15.318Z,162764.03
2022-07-28T16:29:43.425Z,162761.31
2022-07-28T16:32:11.405Z,162700.78
2022-07-28T16:34:38.683Z,162711.53
2022-07-28T16:37:06.288Z,162706.13
2022-07-28T16:39:34.400Z,162745.16
2022-07-28T16:42:02.751Z,162768.03
2022-07-28T16:44:30.669Z,162764.03
2022-07-28T16:46:58.985Z,162749.22
2022-07-28T16:49:26.414Z,162754.56
2022-07-28T16:51:55.428Z,162746.50
2022-07-28T16:54:23.010Z,162741.13
2022-07-28T16:56:51.216Z,162729.03
2022-07-28T16:59:18.471Z,162730.38
2022-07-28T17:01:46.779Z,162733.06
2022-07-28T17:04:15.511Z,162690.00
2022-07-28T17:06:43.131Z,162661.75
2022-07-28T17:09:11.208Z,162649.69
2022-07-28T17:11:38.972Z,162641.56
2022-07-28T17:14:06.261Z,162632.19
2022-07-28T17:16:33.832Z,162613.31
2022-07-28T17:19:01.154Z,162617.38
2022-07-28T17:21:28.509Z,162597.22
2022-07-28T17:23:56.220Z,162552.78
2022-07-28T17:29:10.921Z,162570.25
2022-07-28T17:31:39.134Z,162556.78
2022-07-28T17:34:07.549Z,162521.88
2022-07-28T17:36:35.700Z,162523.22
2022-07-28T17:39:04.722Z,162512.44
2022-07-28T17:41:32.412Z,162493.63
2022-07-28T17:44:01.339Z,162458.69
2022-07-28T17:46:31.511Z,162392.75
2022-07-28T17:48:59.164Z,162351.03
2022-07-28T17:51:27.657Z,162313.41
2022-07-28T17:53:55.531Z,162263.69
2022-07-28T17:56:23.257Z,162226.06
2022-07-28T17:58:51.007Z,162184.41
2022-07-28T18:01:18.734Z,162145.38
2022-07-28T18:03:59.424Z,162071.50
2022-07-28T18:06:29.927Z,162016.41
2022-07-28T18:08:57.893Z,161970.75
2022-07-28T18:11:32.944Z,161937.13
2022-07-28T18:14:04.394Z,161899.53
2022-07-28T18:16:34.625Z,161845.81
2022-07-28T18:19:03.134Z,161808.22
2022-07-28T18:21:30.431Z,161763.94
2022-07-28T18:23:57.695Z,161698.06
2022-07-28T18:26:25.171Z,161663.16
2022-07-28T18:28:52.365Z,161620.22
2022-07-28T18:31:19.641Z,161588.03
2022-07-28T18:33:47.120Z,161502.16
2022-07-28T18:36:14.479Z,161457.81
2022-07-28T18:38:41.801Z,161425.66
2022-07-28T18:41:09.258Z,161396.13
2022-07-28T18:43:37.219Z,161370.63
2022-07-28T18:46:05.363Z,161334.44
2022-07-28T18:48:32.889Z,161311.63
2022-07-28T18:51:00.104Z,161276.78
2022-07-28T18:53:28.835Z,161243.22
2022-07-28T18:55:56.335Z,161201.59
2022-07-28T18:58:23.732Z,161158.72
2022-07-28T19:00:50.985Z,161099.75
2022-07-28T19:03:18.624Z,161074.25
2022-07-28T19:05:46.597Z,161031.38
2022-07-28T19:08:14.193Z,161000.56
2022-07-28T19:10:41.548Z,160953.59
2022-07-28T19:13:09.215Z,160945.56
2022-07-28T19:15:41.210Z,160912.03
2022-07-28T19:18:09.951Z,160901.34
2022-07-28T19:20:44.795Z,160883.91
2022-07-28T19:23:12.314Z,160850.44
2022-07-28T19:25:39.735Z,160798.19
2022-07-28T19:28:07.309Z,160771.38
2022-07-28T19:30:35.104Z,160743.31
2022-07-28T19:33:03.742Z,160732.56
2022-07-28T19:35:30.915Z,160723.22
2022-07-28T19:38:00.287Z,160713.81
2022-07-28T19:40:31.723Z,160692.38
2022-07-28T19:43:00.251Z,160681.63
2022-07-28T19:45:27.682Z,160670.91
2022-07-28T19:47:55.121Z,160652.19
2022-07-28T19:50:22.742Z,160617.38
2022-07-28T19:52:50.134Z,160606.63
2022-07-28T19:55:17.691Z,160593.25
2022-07-28T19:57:45.583Z,160577.19
2022-07-28T20:00:13.459Z,160563.78
2022-07-28T20:02:41.018Z,160549.06
2022-07-28T20:05:09.383Z,160534.34
2022-07-28T20:07:37.054Z,160518.31
2022-07-28T20:10:05.430Z,160508.91
2022-07-28T20:12:36.406Z,160478.13
2022-07-28T20:15:07.483Z,160475.47
2022-07-28T20:17:39.143Z,160459.38
2022-07-28T20:20:12.294Z,160447.38
2022-07-28T20:22:41.289Z,160432.66
2022-07-28T20:25:09.962Z,160411.25
2022-07-28T20:27:42.043Z,160400.50
2022-07-28T20:30:10.614Z,160371.03
2022-07-28T20:32:38.528Z,160330.88
2022-07-28T20:35:08.643Z,160282.69
2022-07-28T20:37:37.622Z,160237.25
2022-07-28T20:40:06.712Z,160266.66
2022-07-28T20:42:34.145Z,160226.50
2022-07-28T20:45:01.594Z,160226.50
2022-07-28T20:47:32.124Z,160211.81
2022-07-28T20:49:59.766Z,160202.47
2022-07-28T20:52:27.454Z,160197.09
2022-07-28T20:54:55.398Z,160194.44
2022-07-28T20:57:23.293Z,160182.38
2022-07-28T20:59:52.139Z,160106.16
2022-07-28T21:02:20.606Z,160118.19
2022-07-28T21:04:50.239Z,160119.53
2022-07-28T21:08:00.118Z,160135.56
2022-07-28T21:10:07.813Z,160167.69
2022-07-28T21:12:37.178Z,160195.75
2022-07-28T21:15:05.247Z,160205.13
2022-07-28T21:17:32.538Z,160218.50
2022-07-28T21:20:00.188Z,160210.47
2022-07-28T21:22:27.530Z,160214.50
2022-07-28T21:24:55.773Z,160234.59
2022-07-28T21:27:23.790Z,160278.72
2022-07-28T21:32:18.246Z,160325.50
2022-07-28T21:34:45.717Z,160365.66
2022-07-28T21:37:13.818Z,160391.16
2022-07-28T21:39:41.475Z,160415.22
2022-07-28T21:42:09.644Z,160413.91
2022-07-28T21:44:37.859Z,160425.97
2022-07-28T21:47:05.567Z,160455.41
2022-07-28T21:49:33.092Z,160455.41
2022-07-28T21:52:00.348Z,160474.09
2022-07-28T21:54:27.755Z,160470.13
2022-07-28T21:56:55.312Z,160466.06
2022-07-28T21:59:22.541Z,160472.75
2022-07-28T22:01:49.888Z,160482.16
2022-07-28T22:04:18.084Z,160456.72
2022-07-28T22:06:46.616Z,160423.25
2022-07-28T22:09:15.228Z,160384.47
2022-07-28T22:11:42.617Z,160361.69
2022-07-28T22:14:10.368Z,160352.28
2022-07-28T22:16:37.618Z,160355.00
2022-07-28T22:19:05.165Z,160371.03
2022-07-28T22:21:32.326Z,160367.00
2022-07-28T22:23:59.558Z,160364.34
2022-07-28T22:26:27.060Z,160352.28
2022-07-28T22:28:54.272Z,160337.56
2022-07-28T22:31:21.892Z,160355.00
2022-07-28T22:33:49.427Z,160337.56
2022-07-28T22:36:16.798Z,160334.91
2022-07-28T22:38:44.050Z,160363.00
2022-07-28T22:41:11.573Z,160344.25
2022-07-28T22:43:38.956Z,160340.22
2022-07-28T22:46:06.217Z,160336.25
2022-07-28T22:48:33.554Z,160333.59
2022-07-28T22:51:00.786Z,160325.50
2022-07-28T22:53:28.319Z,160317.50
2022-07-28T22:55:55.682Z,160302.78
2022-07-28T22:58:23.038Z,160286.75
2022-07-28T23:00:51.613Z,160266.66
2022-07-28T23:03:19.422Z,160264.00
2022-07-28T23:05:46.996Z,160253.28
2022-07-28T23:08:14.234Z,160266.66
2022-07-28T23:10:41.783Z,160249.28
2022-07-28T23:13:08.958Z,160247.91
2022-07-28T23:15:41.086Z,160211.81
2022-07-28T23:18:10.620Z,160234.59
2022-07-28T23:20:39.598Z,160214.50
2022-07-28T23:23:07.049Z,160199.81
2022-07-28T23:25:41.037Z,160203.78
2022-07-28T23:28:08.529Z,160211.81
2022-07-28T23:30:36.197Z,160213.13
2022-07-28T23:33:04.172Z,160219.81
2022-07-28T23:35:31.762Z,160231.88
2022-07-28T23:37:59.304Z,160242.59
2022-07-28T23:40:26.725Z,160225.19
2022-07-28T23:42:53.893Z,160195.75
2022-07-28T23:45:21.542Z,160177.03
2022-07-28T23:47:48.791Z,160152.97
2022-07-28T23:50:16.463Z,160150.31
2022-07-28T23:52:47.504Z,160148.94
2022-07-28T23:55:14.823Z,160130.25
2022-07-28T23:57:42.004Z,160110.19
